createdAt,value
2022-12-03T00:01:44.424Z,23.57
2022-12-03T00:04:14.031Z,24.73
2022-12-03T00:06:42.538Z,24.17
2022-12-03T00:09:10.839Z,24.77
2022-12-03T00:11:39.071Z,25.43
2022-12-03T00:14:07.419Z,24.53
2022-12-03T00:16:35.612Z,23.33
2022-12-03T00:19:04.035Z,23.57
2022-12-03T00:21:36.777Z,23.33
2022-12-03T00:24:05.261Z,23.37
2022-12-03T00:26:33.486Z,23.40
2022-12-03T00:29:04.461Z,24.13
2022-12-03T00:31:32.765Z,23.90
2022-12-03T00:34:01.173Z,23.20
2022-12-03T00:36:29.430Z,24.57
2022-12-03T00:38:59.089Z,22.37
2022-12-03T00:41:27.368Z,23.23
2022-12-03T00:43:57.577Z,23.53
2022-12-03T00:46:25.911Z,22.07
2022-12-03T00:48:54.506Z,22.37
2022-12-03T00:51:22.942Z,22.17
2022-12-03T00:53:51.175Z,21.67
2022-12-03T00:56:20.851Z,21.37
2022-12-03T00:58:49.563Z,21.83
2022-12-03T01:01:17.898Z,22.03
2022-12-03T01:03:46.262Z,21.27
2022-12-03T01:06:14.489Z,23.17
2022-12-03T01:08:42.753Z,21.53
2022-12-03T01:11:30.975Z,23.27
2022-12-03T01:14:00.626Z,21.03
2022-12-03T01:16:28.960Z,21.77
2022-12-03T01:18:57.219Z,20.07
2022-12-03T01:21:25.503Z,19.53
2022-12-03T01:23:53.839Z,21.30
2022-12-03T01:26:22.158Z,19.80
2022-12-03T01:28:50.458Z,20.60
2022-12-03T01:31:38.100Z,20.70
2022-12-03T01:34:07.138Z,20.47
2022-12-03T01:36:35.433Z,20.23
2022-12-03T01:39:04.953Z,20.17
2022-12-03T01:41:58.784Z,19.00
2022-12-03T01:44:30.102Z,18.80
2022-12-03T01:47:02.966Z,19.23
2022-12-03T01:49:35.213Z,17.47
2022-12-03T01:52:03.545Z,17.47
2022-12-03T01:54:39.399Z,16.87
2022-12-03T01:57:18.371Z,16.93
2022-12-03T01:59:46.820Z,16.17
2022-12-03T02:02:22.154Z,16.50
2022-12-03T02:04:52.235Z,16.40
2022-12-03T02:07:23.754Z,15.53
2022-12-03T02:09:52.384Z,14.03
2022-12-03T02:12:26.008Z,15.53
2022-12-03T02:14:55.620Z,15.77
2022-12-03T02:17:26.412Z,15.37
2022-12-03T02:19:55.325Z,14.47
2022-12-03T02:22:38.394Z,13.53
2022-12-03T02:25:19.239Z,12.80
2022-12-03T02:27:49.508Z,13.47
2022-12-03T02:30:20.167Z,13.30
2022-12-03T02:32:49.501Z,11.87
2022-12-03T02:35:19.715Z,12.00
2022-12-03T02:37:51.765Z,11.73
2022-12-03T02:40:23.456Z,12.90
2022-12-03T02:42:54.736Z,11.93
2022-12-03T02:45:25.372Z,12.40
2022-12-03T02:47:58.404Z,11.83
2022-12-03T02:50:33.967Z,12.67
2022-12-03T02:53:04.555Z,12.50
2022-12-03T02:55:37.501Z,12.63
2022-12-03T02:58:07.249Z,12.17
2022-12-03T03:00:37.306Z,12.60
2022-12-03T03:03:09.417Z,13.50
2022-12-03T03:05:39.521Z,12.47
2022-12-03T03:08:09.300Z,14.27
2022-12-03T03:10:40.704Z,12.90
2022-12-03T03:13:12.104Z,13.80
2022-12-03T03:15:41.357Z,13.10
2022-12-03T03:18:10.970Z,12.47
2022-12-03T03:21:04.293Z,14.10
2022-12-03T03:23:32.565Z,12.67
2022-12-03T03:26:06.501Z,13.47
2022-12-03T03:28:39.045Z,13.63
2022-12-03T03:31:09.379Z,11.90
2022-12-03T03:33:38.955Z,12.53
2022-12-03T03:36:08.221Z,12.37
2022-12-03T03:38:37.650Z,12.40
2022-12-03T03:41:09.274Z,11.93
2022-12-03T03:43:39.685Z,11.40
2022-12-03T03:46:08.793Z,11.80
2022-12-03T03:48:37.400Z,12.47
2022-12-03T03:51:09.491Z,11.50
2022-12-03T03:53:40.044Z,11.27
2022-12-03T03:56:10.532Z,10.87
2022-12-03T03:58:39.500Z,11.60
2022-12-03T04:01:08.017Z,11.47
2022-12-03T04:03:36.571Z,10.83
2022-12-03T04:06:05.304Z,14.70
2022-12-03T04:08:33.557Z,13.67
2022-12-03T04:11:19.124Z,12.27
2022-12-03T04:14:13.316Z,13.27
2022-12-03T04:16:41.631Z,11.87
2022-12-03T04:19:09.897Z,12.97
2022-12-03T04:21:51.976Z,12.13
2022-12-03T04:24:20.254Z,11.27
2022-12-03T04:27:05.939Z,11.80
2022-12-03T04:29:35.534Z,11.90
2022-12-03T04:32:21.704Z,12.50
2022-12-03T04:35:07.166Z,12.13
2022-12-03T04:37:35.437Z,12.50
2022-12-03T04:40:23.744Z,12.13
2022-12-03T04:42:51.948Z,11.37
2022-12-03T04:45:21.566Z,12.10
2022-12-03T04:47:49.846Z,12.07
2022-12-03T04:50:18.255Z,12.33
2022-12-03T04:52:46.532Z,12.37
2022-12-03T04:55:27.046Z,12.00
2022-12-03T04:57:55.380Z,12.20
2022-12-03T05:00:25.246Z,12.43
2022-12-03T05:02:53.561Z,11.73
2022-12-03T05:05:21.946Z,11.17
2022-12-03T05:07:50.286Z,11.33
2022-12-03T05:10:18.685Z,11.67
2022-12-03T05:12:47.003Z,11.50
2022-12-03T05:15:15.218Z,10.87
2022-12-03T05:17:44.903Z,10.27
2022-12-03T05:20:32.072Z,11.83
2022-12-03T05:23:00.347Z,12.67
2022-12-03T05:25:28.550Z,11.67
2022-12-03T05:27:56.847Z,12.30
2022-12-03T05:30:25.178Z,14.37
2022-12-03T05:32:55.085Z,13.57
2022-12-03T05:35:23.298Z,14.33
2022-12-03T05:37:51.695Z,16.10
2022-12-03T05:40:20.291Z,14.33
2022-12-03T05:42:57.219Z,15.80
2022-12-03T05:45:27.004Z,15.13
2022-12-03T05:47:57.804Z,15.90
2022-12-03T05:50:28.246Z,14.83
2022-12-03T05:52:56.856Z,15.70
2022-12-03T05:55:25.540Z,13.43
2022-12-03T05:58:07.000Z,12.60
2022-12-03T06:00:42.314Z,13.07
2022-12-03T06:03:12.659Z,12.43
2022-12-03T06:05:40.889Z,11.87
2022-12-03T06:08:09.226Z,12.50
2022-12-03T06:10:37.576Z,12.07
2022-12-03T06:13:05.823Z,11.43
2022-12-03T06:15:37.505Z,11.90
2022-12-03T06:18:26.789Z,11.93
2022-12-03T06:20:55.075Z,10.50
2022-12-03T06:23:23.443Z,8.97
2022-12-03T06:25:51.771Z,8.87
2022-12-03T06:28:20.108Z,8.40
2022-12-03T06:30:48.424Z,9.80
2022-12-03T06:33:16.649Z,11.40
2022-12-03T06:35:46.292Z,12.50
2022-12-03T06:38:14.521Z,13.90
2022-12-03T06:40:42.807Z,8.20
2022-12-03T06:43:11.006Z,14.07
2022-12-03T06:45:42.146Z,8.97
2022-12-03T06:48:14.467Z,14.33
2022-12-03T06:50:42.679Z,18.30
2022-12-03T06:53:12.401Z,11.03
2022-12-03T06:55:40.741Z,6.30
2022-12-03T06:58:09.054Z,7.27
2022-12-03T07:00:37.336Z,19.63
2022-12-03T07:03:05.711Z,7.23
2022-12-03T07:05:34.066Z,6.07
2022-12-03T07:08:02.412Z,6.50
2022-12-03T07:10:32.162Z,7.50
2022-12-03T07:13:00.483Z,6.67
2022-12-03T07:15:28.742Z,6.13
2022-12-03T07:17:57.016Z,16.83
2022-12-03T07:20:25.313Z,8.87
2022-12-03T07:22:53.660Z,7.30
2022-12-03T07:25:23.681Z,6.77
2022-12-03T07:27:53.577Z,7.13
2022-12-03T07:30:23.574Z,6.33
2022-12-03T07:32:52.305Z,6.37
2022-12-03T07:35:20.555Z,6.80
2022-12-03T07:37:48.914Z,6.93
2022-12-03T07:40:17.371Z,8.57
2022-12-03T07:42:45.651Z,8.80
2022-12-03T07:45:15.308Z,14.93
2022-12-03T07:47:43.616Z,8.83
2022-12-03T07:50:12.609Z,7.67
2022-12-03T07:52:40.890Z,7.30
2022-12-03T07:55:11.727Z,10.30
2022-12-03T07:57:39.984Z,8.07
2022-12-03T08:00:09.336Z,8.70
2022-12-03T08:02:39.051Z,9.90
2022-12-03T08:05:19.487Z,8.53
2022-12-03T08:07:47.834Z,10.73
2022-12-03T08:10:16.136Z,6.37
2022-12-03T08:12:44.413Z,9.33
2022-12-03T08:15:15.640Z,8.40
2022-12-03T08:17:46.216Z,6.97
2022-12-03T08:20:17.621Z,11.70
2022-12-03T08:22:47.739Z,8.83
2022-12-03T08:25:21.096Z,11.13
2022-12-03T08:27:49.539Z,11.50
2022-12-03T08:30:18.914Z,16.97
2022-12-03T08:33:19.671Z,12.90
2022-12-03T08:35:51.806Z,10.40
2022-12-03T08:38:23.107Z,8.90
2022-12-03T08:40:52.741Z,7.83
2022-12-03T08:43:21.931Z,10.50
2022-12-03T08:45:51.814Z,17.80
2022-12-03T08:48:27.899Z,13.87
2022-12-03T08:50:57.669Z,13.40
2022-12-03T08:53:37.933Z,9.40
2022-12-03T08:56:20.400Z,8.97
2022-12-03T08:58:50.037Z,12.57
2022-12-03T09:01:46.283Z,12.97
2022-12-03T09:04:31.207Z,20.00
2022-12-03T09:06:59.678Z,17.20
2022-12-03T09:09:28.072Z,7.73
2022-12-03T09:11:56.700Z,11.83
2022-12-03T09:14:25.043Z,10.83
2022-12-03T09:16:55.974Z,14.77
2022-12-03T09:19:27.634Z,14.07
2022-12-03T09:21:56.289Z,11.47
2022-12-03T09:24:24.644Z,18.00
2022-12-03T09:26:52.893Z,12.47
2022-12-03T09:29:21.256Z,13.37
2022-12-03T09:31:49.599Z,11.60
2022-12-03T09:34:17.967Z,12.10
2022-12-03T09:36:47.664Z,10.10
2022-12-03T09:39:15.930Z,12.27
2022-12-03T09:41:44.566Z,13.87
2022-12-03T09:44:17.458Z,13.00
2022-12-03T09:46:49.033Z,13.27
2022-12-03T09:49:18.842Z,13.57
2022-12-03T09:51:48.660Z,13.50
2022-12-03T09:54:24.293Z,14.60
2022-12-03T09:56:53.509Z,11.93
2022-12-03T09:59:22.808Z,13.63
2022-12-03T10:01:51.405Z,12.70
2022-12-03T10:04:19.949Z,13.20
2022-12-03T10:06:49.837Z,12.60
2022-12-03T10:09:23.701Z,13.23
2022-12-03T10:11:51.991Z,14.50
2022-12-03T10:14:21.454Z,13.87
2022-12-03T10:16:50.079Z,14.80
2022-12-03T10:19:23.035Z,13.20
2022-12-03T10:21:52.878Z,17.67
2022-12-03T10:24:26.853Z,15.17
2022-12-03T10:26:56.483Z,13.60
2022-12-03T10:29:31.655Z,13.27
2022-12-03T10:32:03.839Z,13.40
2022-12-03T10:34:34.407Z,14.00
2022-12-03T10:37:13.584Z,14.40
2022-12-03T10:40:05.420Z,15.33
2022-12-03T10:42:34.894Z,21.10
2022-12-03T10:45:16.703Z,14.77
2022-12-03T10:48:01.674Z,15.47
2022-12-03T10:50:30.057Z,21.07
2022-12-03T10:52:59.764Z,19.40
2022-12-03T10:55:29.921Z,13.23
2022-12-03T10:57:58.883Z,25.77
2022-12-03T11:00:27.202Z,18.10
2022-12-03T11:02:57.204Z,20.60
2022-12-03T11:05:28.237Z,25.23
2022-12-03T11:07:57.755Z,20.97
2022-12-03T11:10:27.461Z,20.60
2022-12-03T11:13:32.020Z,24.10
2022-12-03T11:16:00.837Z,23.10
2022-12-03T11:19:01.253Z,22.90
2022-12-03T11:21:32.591Z,19.87
2022-12-03T11:24:19.592Z,20.70
2022-12-03T11:27:48.224Z,22.17
2022-12-03T11:31:02.259Z,22.23
2022-12-03T11:33:32.287Z,25.27
2022-12-03T11:36:16.271Z,21.30
2022-12-03T11:38:54.021Z,18.10
2022-12-03T11:41:33.768Z,19.17
2022-12-03T11:44:30.316Z,19.73
2022-12-03T11:47:17.097Z,15.60
2022-12-03T11:49:49.845Z,14.23
2022-12-03T11:52:44.118Z,13.10
2022-12-03T11:55:18.623Z,13.63
2022-12-03T11:57:47.018Z,14.93
2022-12-03T12:00:20.618Z,13.80
2022-12-03T12:02:51.470Z,13.60
2022-12-03T12:05:24.456Z,13.80
2022-12-03T12:07:53.113Z,15.63
2022-12-03T12:10:44.340Z,14.77
2022-12-03T12:13:43.436Z,15.17
2022-12-03T12:16:12.288Z,15.63
2022-12-03T12:18:44.176Z,15.20
2022-12-03T12:21:41.372Z,15.17
2022-12-03T12:24:36.391Z,12.97
2022-12-03T12:27:07.569Z,14.33
2022-12-03T12:29:36.337Z,14.53
2022-12-03T12:32:15.186Z,12.77
2022-12-03T12:34:47.355Z,11.73
2022-12-03T12:37:21.455Z,11.90
2022-12-03T12:39:50.062Z,11.40
2022-12-03T12:42:37.956Z,11.00
2022-12-03T12:45:17.347Z,11.33
2022-12-03T12:47:50.362Z,12.07
2022-12-03T12:50:20.999Z,14.50
2022-12-03T12:52:54.933Z,12.60
2022-12-03T12:55:24.562Z,14.33
2022-12-03T12:57:53.206Z,11.70
2022-12-03T13:00:23.825Z,11.07
2022-12-03T13:02:55.575Z,16.77
2022-12-03T13:05:27.682Z,20.83
2022-12-03T13:07:56.901Z,24.43
2022-12-03T13:10:40.267Z,12.93
2022-12-03T13:13:20.130Z,16.13
2022-12-03T13:15:58.429Z,12.03
2022-12-03T13:18:40.733Z,14.10
2022-12-03T13:21:38.933Z,12.33
2022-12-03T13:24:33.637Z,12.60
2022-12-03T13:27:06.596Z,10.47
2022-12-03T13:29:34.946Z,10.33
2022-12-03T13:32:11.227Z,11.97
2022-12-03T13:34:39.526Z,11.77
2022-12-03T13:37:15.085Z,12.17
2022-12-03T13:39:49.212Z,11.20
2022-12-03T13:42:41.918Z,12.43
2022-12-03T13:45:30.807Z,14.10
2022-12-03T13:48:00.635Z,15.13
2022-12-03T13:50:35.147Z,15.50
2022-12-03T13:53:14.576Z,15.43
2022-12-03T13:55:46.536Z,26.93
2022-12-03T13:58:15.032Z,15.00
2022-12-03T14:00:43.368Z,18.73
2022-12-03T14:03:11.800Z,17.53
2022-12-03T14:05:40.196Z,14.00
2022-12-03T14:08:09.824Z,13.73
2022-12-03T14:10:38.134Z,18.03
2022-12-03T14:13:06.321Z,14.87
2022-12-03T14:15:34.523Z,12.43
2022-12-03T14:18:02.771Z,16.57
2022-12-03T14:20:31.018Z,15.77
2022-12-03T14:23:26.001Z,13.03
2022-12-03T14:25:54.208Z,17.37
2022-12-03T14:28:22.600Z,25.13
2022-12-03T14:30:50.888Z,21.43
2022-12-03T14:33:19.125Z,15.57
2022-12-03T14:35:47.470Z,19.50
2022-12-03T14:38:15.730Z,16.20
2022-12-03T14:40:45.343Z,15.30
2022-12-03T14:43:13.618Z,12.70
2022-12-03T14:45:41.971Z,14.63
2022-12-03T14:48:10.340Z,16.13
2022-12-03T14:50:38.557Z,16.33
2022-12-03T14:53:06.762Z,12.50
2022-12-03T14:55:34.989Z,14.73
2022-12-03T14:58:04.792Z,14.63
2022-12-03T15:00:33.019Z,14.93
2022-12-03T15:03:01.273Z,18.87
2022-12-03T15:05:29.636Z,18.83
2022-12-03T15:07:57.995Z,16.40
2022-12-03T15:10:51.165Z,16.67
2022-12-03T15:13:20.803Z,12.73
2022-12-03T15:15:49.059Z,12.73
2022-12-03T15:18:17.323Z,11.53
2022-12-03T15:20:45.630Z,12.00
2022-12-03T15:23:14.749Z,13.17
2022-12-03T15:25:43.316Z,11.77
2022-12-03T15:28:11.672Z,19.60
2022-12-03T15:30:41.306Z,17.23
2022-12-03T15:33:09.530Z,12.03
2022-12-03T15:35:37.841Z,16.50
2022-12-03T15:38:06.020Z,13.77
2022-12-03T15:40:34.234Z,14.50
2022-12-03T15:43:02.464Z,21.90
2022-12-03T15:45:30.668Z,14.33
2022-12-03T15:48:00.341Z,13.10
2022-12-03T15:50:29.191Z,14.63
2022-12-03T15:52:57.403Z,16.90
2022-12-03T15:55:25.764Z,13.23
2022-12-03T15:57:54.030Z,14.33
2022-12-03T16:00:47.188Z,17.03
2022-12-03T16:03:16.894Z,16.27
2022-12-03T16:05:45.206Z,16.37
2022-12-03T16:08:13.671Z,14.93
2022-12-03T16:10:41.896Z,15.83
2022-12-03T16:13:10.135Z,20.07
2022-12-03T16:15:38.365Z,17.47
2022-12-03T16:18:06.732Z,17.20
2022-12-03T16:20:36.426Z,15.93
2022-12-03T16:23:04.708Z,15.10
2022-12-03T16:25:32.909Z,14.40
2022-12-03T16:28:01.103Z,14.30
2022-12-03T16:30:29.345Z,18.77
2022-12-03T16:32:57.589Z,17.57
2022-12-03T16:35:25.843Z,15.37
2022-12-03T16:37:55.465Z,17.73
2022-12-03T16:40:23.799Z,15.87
2022-12-03T16:42:51.994Z,15.13
2022-12-03T16:45:33.626Z,15.07
2022-12-03T16:48:02.941Z,15.33
2022-12-03T16:50:31.138Z,14.67
2022-12-03T16:53:00.747Z,14.50
2022-12-03T16:55:29.111Z,13.80
2022-12-03T16:57:57.394Z,13.57
2022-12-03T17:00:26.252Z,14.23
2022-12-03T17:02:54.570Z,13.93
2022-12-03T17:05:22.939Z,14.77
2022-12-03T17:07:51.245Z,13.53
2022-12-03T17:10:20.975Z,14.60
2022-12-03T17:13:08.799Z,14.23
2022-12-03T17:15:40.967Z,23.90
2022-12-03T17:18:09.688Z,19.67
2022-12-03T17:20:38.366Z,24.00
2022-12-03T17:23:06.581Z,17.30
2022-12-03T17:25:36.354Z,15.97
2022-12-03T17:28:04.651Z,15.17
2022-12-03T17:30:32.962Z,16.50
2022-12-03T17:33:01.273Z,14.23
2022-12-03T17:35:29.671Z,14.47
2022-12-03T17:37:57.946Z,13.77
2022-12-03T17:40:26.163Z,14.40
2022-12-03T17:42:55.818Z,14.00
2022-12-03T17:45:24.110Z,12.53
2022-12-03T17:47:52.370Z,12.33
2022-12-03T17:50:20.614Z,13.57
2022-12-03T17:52:48.850Z,14.10
2022-12-03T17:55:27.741Z,22.63
2022-12-03T17:58:00.879Z,28.00
2022-12-03T18:00:29.534Z,30.60
2022-12-03T18:02:59.258Z,29.13
2022-12-03T18:05:27.507Z,14.73
2022-12-03T18:07:55.744Z,12.83
2022-12-03T18:10:24.007Z,13.53
2022-12-03T18:12:54.806Z,12.37
2022-12-03T18:15:26.685Z,12.70
2022-12-03T18:17:54.888Z,11.40
2022-12-03T18:20:23.153Z,11.53
2022-12-03T18:22:51.423Z,11.30
2022-12-03T18:25:19.883Z,10.43
2022-12-03T18:27:48.223Z,15.50
2022-12-03T18:30:16.680Z,21.73
2022-12-03T18:32:46.257Z,17.03
2022-12-03T18:35:14.564Z,13.70
2022-12-03T18:37:42.871Z,12.80
2022-12-03T18:40:18.551Z,13.67
2022-12-03T18:42:46.916Z,14.73
2022-12-03T18:45:16.368Z,12.77
2022-12-03T18:47:46.464Z,12.03
2022-12-03T18:50:15.076Z,12.10
2022-12-03T18:52:43.284Z,14.63
2022-12-03T18:55:18.489Z,12.77
2022-12-03T18:57:47.067Z,13.77
2022-12-03T19:00:16.634Z,11.63
2022-12-03T19:03:02.322Z,13.77
2022-12-03T19:05:31.309Z,13.90
2022-12-03T19:07:59.820Z,15.00
2022-12-03T19:10:28.241Z,14.53
2022-12-03T19:12:56.496Z,15.73
2022-12-03T19:15:24.715Z,15.40
2022-12-03T19:17:54.362Z,14.50
2022-12-03T19:20:22.566Z,15.43
2022-12-03T19:22:50.822Z,15.07
2022-12-03T19:25:19.170Z,13.53
2022-12-03T19:27:49.258Z,14.67
2022-12-03T19:30:17.938Z,15.70
2022-12-03T19:32:46.525Z,14.70
2022-12-03T19:35:16.181Z,14.27
2022-12-03T19:37:46.320Z,12.80
2022-12-03T19:40:14.795Z,14.47
2022-12-03T19:42:43.290Z,15.50
2022-12-03T19:45:12.433Z,14.23
2022-12-03T19:47:41.048Z,14.30
2022-12-03T19:50:10.823Z,15.60
2022-12-03T19:52:44.795Z,16.50
2022-12-03T19:55:13.703Z,18.07
2022-12-03T19:57:41.945Z,16.30
2022-12-03T20:00:11.467Z,16.67
2022-12-03T20:02:39.782Z,16.10
2022-12-03T20:05:09.330Z,15.97
2022-12-03T20:07:37.612Z,18.17
2022-12-03T20:10:08.735Z,23.10
2022-12-03T20:12:36.932Z,24.00
2022-12-03T20:15:06.173Z,22.67
2022-12-03T20:17:34.386Z,23.77
2022-12-03T20:20:02.595Z,20.53
2022-12-03T20:22:30.842Z,20.63
2022-12-03T20:24:59.119Z,20.63
2022-12-03T20:27:28.698Z,23.30
2022-12-03T20:29:57.022Z,20.93
2022-12-03T20:32:25.389Z,21.13
2022-12-03T20:34:53.728Z,32.13
2022-12-03T20:37:21.923Z,28.10
2022-12-03T20:39:51.294Z,26.43
2022-12-03T20:42:19.542Z,24.23
2022-12-03T20:44:52.616Z,33.27
2022-12-03T20:47:21.269Z,29.10
2022-12-03T20:49:49.493Z,28.17
2022-12-03T20:52:17.734Z,25.23
2022-12-03T20:54:46.080Z,29.50
2022-12-03T20:57:14.325Z,28.20
2022-12-03T20:59:42.611Z,24.73
2022-12-03T21:02:12.496Z,23.63
2022-12-03T21:04:40.923Z,24.73
2022-12-03T21:07:09.162Z,22.83
2022-12-03T21:09:37.377Z,21.03
2022-12-03T21:12:05.962Z,35.17
2022-12-03T21:14:35.595Z,29.93
2022-12-03T21:17:08.698Z,27.20
2022-12-03T21:19:39.021Z,19.43
2022-12-03T21:22:07.334Z,18.90
2022-12-03T21:24:35.937Z,20.33
2022-12-03T21:27:04.467Z,20.43
2022-12-03T21:29:32.665Z,19.50
2022-12-03T21:32:00.855Z,18.57
2022-12-03T21:34:35.587Z,20.83
2022-12-03T21:37:05.851Z,17.50
2022-12-03T21:39:34.124Z,18.60
2022-12-03T21:42:34.054Z,19.73
2022-12-03T21:44:50.845Z,22.10
2022-12-03T21:47:19.111Z,16.23
2022-12-03T21:49:47.339Z,15.47
2022-12-03T21:52:16.944Z,17.10
2022-12-03T21:54:45.318Z,16.17
2022-12-03T21:57:13.701Z,15.87
2022-12-03T21:59:44.308Z,17.23
2022-12-03T22:02:12.700Z,16.37
2022-12-03T22:04:41.528Z,18.20
2022-12-03T22:07:11.188Z,17.80
2022-12-03T22:09:40.864Z,19.70
2022-12-03T22:12:09.195Z,18.47
2022-12-03T22:14:37.519Z,18.67
2022-12-03T22:17:05.704Z,22.10
2022-12-03T22:19:34.113Z,21.60
2022-12-03T22:22:02.369Z,21.33
2022-12-03T22:24:30.731Z,21.23
2022-12-03T22:27:00.346Z,21.27
2022-12-03T22:29:28.654Z,21.10
2022-12-03T22:31:56.857Z,20.33
2022-12-03T22:34:25.432Z,20.63
2022-12-03T22:36:53.605Z,20.73
2022-12-03T22:39:21.973Z,21.40
2022-12-03T22:41:50.242Z,23.07
2022-12-03T22:44:19.889Z,20.77
2022-12-03T22:46:48.218Z,23.50
2022-12-03T22:49:16.573Z,23.43
2022-12-03T22:51:46.681Z,20.73
2022-12-03T22:54:18.133Z,20.07
2022-12-03T22:56:49.078Z,19.43
2022-12-03T22:59:17.291Z,22.33
2022-12-03T23:01:47.452Z,23.47
2022-12-03T23:04:15.718Z,23.10
2022-12-03T23:06:44.631Z,24.37
2022-12-03T23:09:12.938Z,22.07
2022-12-03T23:11:41.223Z,21.67
2022-12-03T23:14:09.430Z,19.90
2022-12-03T23:16:37.653Z,20.83
2022-12-03T23:19:07.272Z,20.33
2022-12-03T23:21:36.389Z,21.03
2022-12-03T23:24:06.138Z,23.23
2022-12-03T23:26:36.908Z,22.07
2022-12-03T23:29:05.751Z,20.77
2022-12-03T23:31:34.996Z,21.20
2022-12-03T23:34:03.497Z,20.60
2022-12-03T23:36:34.516Z,18.13
2022-12-03T23:39:02.859Z,18.43
2022-12-03T23:41:31.226Z,18.53
2022-12-03T23:43:59.562Z,19.53
2022-12-03T23:46:28.882Z,20.53
2022-12-03T23:48:59.613Z,19.10
2022-12-03T23:51:28.500Z,19.33
2022-12-03T23:54:04.098Z,18.97
2022-12-03T23:56:32.485Z,21.90
2022-12-03T23:59:00.919Z,19.70
